Startpagina
METAR-TAF:

METAR-TAF

Vliegvelden :

Aeroporto de Congonhas/São Paulo

São Paulo, São Paulo, Brazilië

breedte: 23-37S, lengte: 046-39W, hoogte: 803 m

Actueel weer

Dit bericht is 14 minuten geleden gemaakt, om 03:00 UTC
Wind 4 kt uit het noordwesten
Temperatuur 22°C
Vochtigheid 50%
Druk 1018 hPa
Zicht 10 km of meer
geen wolken onder 1500 m en geen cumulonimbus

METAR: SBSP 120300Z AUTO 32004KT CAVOK 22/11 Q1018

Tijdstip: 00:14 (03:14 UTC)

Verwachting

Dit bericht is 6 uur en het 4 minuten geleden gemaakt, om 21:10 UTC
Verwachting geldig van 12 om 00 UTC tot 12 om 12 UTC
Wind 5 kt uit het noorden
Zicht 10 km of meer
geen wolken onder 1500 m en geen cumulonimbus
Tijdelijke
van 12 om 07 UTC tot 12 om 10 UTC
Zicht: 6000 m

TAF: SBSP 112110Z 1200/1212 35005KT CAVOK TN18/1209Z TX24/1212Z TEMPO 1207/1210 6000 RMK PGN

Waarnemingen en weersverwachtingen van meer dan 4000 vliegvelden (METAR en TAF).

De beschikbare stations zijn de gele en rode punten op de kaart.

Ga met uw muis naar het station om de naam te zien.

Klik dan om waarnemingen en weersverwachtingen te zien.

kaart wijzigen: klik op de groene knoppen met een zwart kruis om in te zoomen, op de groene knop met een streepje om uit te zoomen of op de groene pijlen voor aangrenzende kaarten.


METAR-TAF: